Terminal Aerodrome Forecast
Issued by NWS

Home | Current Version | Previous Version | Text Only | Print | Product List | Glossary On
Versions: 1 2 3 4 5 6 7 8 9 10 11 12 13 14 15 16 17 18 19
000
FTUS44 KLIX 201121
TAFGPT
TAF
KGPT 201121Z 2012/2112 11006KT 3/4SM BR OVC002
     FM201500 12004KT P6SM SCT010
     FM201800 13006KT P6SM SCT250
     FM210700 14005KT 5SM -SHRA SCT005 BKN030
     FM211000 12005KT 3SM TSRA SCT003 OVC030CB
      TEMPO 2110/2112 3/4SM TSRA OVC003CB=

USA.gov is the U.S. government's official web portal to all federal, state and local government web resources and services.